Terminal Aerodrome Forecast
Issued by NWS

Home | Current Version | Previous Version | Text Only | Print | Product List | Glossary On
Versions: 1 2 3 4 5 6 7 8 9 10 11 12 13
352
FTUS45 KTFX 221723
TAFGTF
TAF
KGTF 221723Z 2218/2318 30010G17KT P6SM FEW130 SCT250
     FM230300 02009G17KT P6SM SCT080 BKN110 PROB30 2309/2315 4SM
      -RASN BKN030 BKN045
     FM231700 02008KT P6SM SCT025 BKN030=

USA.gov is the U.S. government's official web portal to all federal, state and local government web resources and services.